Terminal Aerodrome Forecast
Issued by NWS Raleigh/Durham, NC

Home | Current Version | Previous Version | Text Only | Print | Product List | Glossary On
Versions: 1 2 3 4 5 6 7 8 9 10 11 12 13 14 15 16
000
FTUS42 KRAH 281429 AAB
TAFFAY
TAF AMD
KFAY 281429Z 2814/2912 01008KT P6SM SCT015
     FM281500 02008KT P6SM BKN035
      TEMPO 2821/2824 6SM -SHRA BKN030
     FM290900 01004KT 4SM BR BKN007=

USA.gov is the U.S. government's official web portal to all federal, state and local government web resources and services.